createdAt,value
2022-11-12T00:02:25.738Z,241.26
2022-11-12T00:07:32.776Z,241.12
2022-11-12T00:12:39.999Z,241.12
2022-11-12T00:17:47.413Z,241.50
2022-11-12T00:22:54.481Z,241.66
2022-11-12T00:28:01.643Z,241.64
2022-11-12T00:33:08.959Z,241.55
2022-11-12T00:38:16.016Z,242.27
2022-11-12T00:43:23.493Z,242.62
2022-11-12T00:48:30.875Z,242.59
2022-11-12T00:53:37.992Z,242.61
2022-11-12T00:58:45.224Z,242.36
2022-11-12T01:03:52.642Z,242.13
2022-11-12T01:08:59.683Z,242.13
2022-11-12T01:14:06.881Z,242.55
2022-11-12T01:19:14.179Z,242.33
2022-11-12T01:24:21.208Z,242.57
2022-11-12T01:29:28.441Z,243.00
2022-11-12T01:34:35.810Z,243.17
2022-11-12T01:39:42.887Z,243.18
2022-11-12T01:44:50.117Z,242.81
2022-11-12T01:49:59.253Z,243.43
2022-11-12T01:55:06.341Z,243.52
2022-11-12T02:00:13.654Z,243.99
2022-11-12T02:05:21.008Z,243.83
2022-11-12T02:10:28.209Z,244.14
2022-11-12T02:15:38.331Z,243.18
2022-11-12T02:20:45.708Z,243.34
2022-11-12T02:25:52.763Z,243.68
2022-11-12T02:31:00.016Z,244.22
2022-11-12T02:36:07.285Z,244.28
2022-11-12T02:41:15.416Z,244.47
2022-11-12T02:46:24.215Z,244.53
2022-11-12T02:51:31.569Z,244.91
2022-11-12T02:56:38.672Z,245.24
2022-11-12T03:01:45.877Z,245.25
2022-11-12T03:06:53.231Z,245.16
2022-11-12T03:12:00.501Z,244.67
2022-11-12T03:17:07.789Z,245.26
2022-11-12T03:22:15.131Z,245.48
2022-11-12T03:27:22.228Z,245.54
2022-11-12T03:32:29.423Z,245.89
2022-11-12T03:37:36.811Z,245.22
2022-11-12T03:42:43.937Z,244.32
2022-11-12T03:47:51.253Z,245.13
2022-11-12T03:52:58.672Z,244.67
2022-11-12T03:58:05.747Z,245.17
2022-11-12T04:03:13.793Z,245.05
2022-11-12T04:08:21.207Z,244.71
2022-11-12T04:13:28.295Z,245.47
2022-11-12T04:18:35.619Z,245.95
2022-11-12T04:23:42.952Z,246.47
2022-11-12T04:28:50.150Z,247.19
2022-11-12T04:33:57.362Z,248.02
2022-11-12T04:39:04.688Z,247.72
2022-11-12T04:44:11.800Z,247.90
2022-11-12T04:49:19.029Z,247.39
2022-11-12T04:54:29.422Z,247.61
2022-11-12T04:59:36.524Z,247.02
2022-11-12T05:04:43.741Z,246.79
2022-11-12T05:09:51.128Z,246.17
2022-11-12T05:14:58.298Z,246.14
2022-11-12T05:20:05.561Z,245.65
2022-11-12T05:25:12.976Z,245.78
2022-11-12T05:30:20.081Z,245.73
2022-11-12T05:35:27.359Z,246.15
2022-11-12T05:40:34.777Z,246.93
2022-11-12T05:45:43.926Z,247.37
2022-11-12T05:51:11.796Z,247.42
2022-11-12T05:55:58.448Z,246.20
2022-11-12T06:01:05.504Z,248.15
2022-11-12T06:06:12.720Z,246.71
2022-11-12T06:11:20.025Z,246.73
2022-11-12T06:16:27.123Z,245.60
2022-11-12T06:21:34.381Z,245.58
2022-11-12T06:26:41.752Z,245.49
2022-11-12T06:31:48.937Z,245.26
2022-11-12T06:36:56.170Z,245.14
2022-11-12T06:42:03.516Z,244.77
2022-11-12T06:47:10.637Z,245.16
2022-11-12T06:52:17.859Z,245.76
2022-11-12T06:57:25.180Z,246.42
2022-11-12T07:02:32.310Z,246.46
2022-11-12T07:07:39.538Z,245.77
2022-11-12T07:12:53.157Z,245.71
2022-11-12T07:17:55.062Z,245.88
2022-11-12T07:23:02.326Z,245.40
2022-11-12T07:28:10.269Z,244.87
2022-11-12T07:33:17.449Z,245.98
2022-11-12T07:38:25.006Z,245.53
2022-11-12T07:43:32.048Z,245.75
2022-11-12T07:48:39.174Z,246.63
2022-11-12T07:53:46.421Z,247.08
2022-11-12T07:58:53.786Z,246.57
2022-11-12T08:04:00.872Z,247.20
2022-11-12T08:09:08.077Z,247.04
2022-11-12T08:14:15.464Z,246.95
2022-11-12T08:19:22.471Z,246.77
2022-11-12T08:24:29.727Z,247.12
2022-11-12T08:29:38.839Z,246.66
2022-11-12T08:34:45.941Z,246.55
2022-11-12T08:39:53.125Z,246.90
2022-11-12T08:45:02.559Z,246.33
2022-11-12T08:50:11.574Z,246.60
2022-11-12T08:55:18.803Z,246.01
2022-11-12T09:00:26.215Z,246.18
2022-11-12T09:05:33.330Z,246.20
2022-11-12T09:10:40.573Z,246.22
2022-11-12T09:15:47.943Z,245.75
2022-11-12T09:20:55.046Z,245.44
2022-11-12T09:26:02.296Z,245.11
2022-11-12T09:31:09.614Z,245.06
2022-11-12T09:36:16.728Z,245.33
2022-11-12T09:41:23.967Z,244.90
2022-11-12T09:46:31.307Z,244.83
2022-11-12T09:51:38.417Z,245.84
2022-11-12T09:56:45.635Z,246.11
2022-11-12T10:01:53.046Z,245.92
2022-11-12T10:07:00.112Z,246.38
2022-11-12T10:12:09.308Z,246.86
2022-11-12T10:17:18.500Z,247.76
2022-11-12T10:22:25.684Z,248.41
2022-11-12T10:27:32.905Z,248.92
2022-11-12T10:32:40.259Z,249.12
2022-11-12T10:37:47.365Z,248.97
2022-11-12T10:42:54.645Z,249.35
2022-11-12T10:48:01.989Z,249.87
2022-11-12T10:53:12.965Z,250.02
2022-11-12T10:58:20.139Z,250.41
2022-11-12T11:03:27.486Z,249.88
2022-11-12T11:08:36.575Z,250.59
2022-11-12T11:13:41.830Z,251.43
2022-11-12T11:18:52.231Z,251.59
2022-11-12T11:23:59.383Z,252.46
2022-11-12T11:29:06.599Z,252.45
2022-11-12T11:34:13.875Z,253.31
2022-11-12T11:39:20.986Z,253.30
2022-11-12T11:44:28.220Z,254.13
2022-11-12T11:49:41.445Z,254.22
2022-11-12T11:54:49.934Z,255.06
2022-11-12T11:59:57.179Z,255.25
2022-11-12T12:05:05.019Z,255.31
2022-11-12T12:10:12.095Z,256.04
2022-11-12T12:15:19.785Z,256.66
2022-11-12T12:20:28.915Z,256.61
2022-11-12T12:25:36.052Z,256.88
2022-11-12T12:30:43.286Z,257.22
2022-11-12T12:35:50.612Z,257.95
2022-11-12T12:40:57.770Z,258.69
2022-11-12T12:46:05.016Z,259.40
2022-11-12T12:51:12.442Z,259.86
2022-11-12T12:56:19.509Z,260.38
2022-11-12T13:01:26.726Z,260.93
2022-11-12T13:06:34.116Z,261.42
2022-11-12T13:11:42.032Z,261.70
2022-11-12T13:16:49.266Z,261.64
2022-11-12T13:21:56.783Z,263.22
2022-11-12T13:27:03.868Z,262.83
2022-11-12T13:32:11.044Z,262.84
2022-11-12T13:37:18.383Z,263.06
2022-11-12T13:42:25.424Z,262.76
2022-11-12T13:47:32.686Z,262.36
2022-11-12T13:52:40.000Z,262.68
2022-11-12T13:57:47.066Z,262.22
2022-11-12T14:02:54.254Z,262.23
2022-11-12T14:08:01.617Z,262.38
2022-11-12T14:13:08.752Z,262.21
2022-11-12T14:18:16.837Z,261.36
2022-11-12T14:23:25.331Z,262.18
2022-11-12T14:28:31.303Z,262.16
2022-11-12T14:33:38.595Z,262.91
2022-11-12T14:38:45.954Z,262.91
2022-11-12T14:44:11.013Z,262.47
2022-11-12T14:49:01.838Z,263.33
2022-11-12T14:54:13.211Z,263.54
2022-11-12T14:59:20.406Z,263.79
2022-11-12T15:04:27.571Z,264.38
2022-11-12T15:09:35.060Z,264.79
2022-11-12T15:14:42.160Z,264.25
2022-11-12T15:19:52.919Z,266.45
2022-11-12T15:25:02.226Z,266.26
2022-11-12T15:30:09.339Z,265.54
2022-11-12T15:35:16.615Z,267.07
2022-11-12T15:40:24.053Z,267.24
2022-11-12T15:45:31.239Z,267.36
2022-11-12T15:50:38.588Z,267.62
2022-11-12T15:55:45.976Z,268.73
2022-11-12T16:00:53.494Z,267.72
2022-11-12T16:06:05.679Z,267.59
2022-11-12T16:11:08.099Z,268.17
2022-11-12T16:16:15.881Z,268.89
2022-11-12T16:21:24.871Z,268.55
2022-11-12T16:26:32.302Z,268.44
2022-11-12T16:31:40.238Z,269.14
2022-11-12T16:36:47.402Z,268.90
2022-11-12T16:41:54.710Z,268.70
2022-11-12T16:47:08.343Z,268.58
2022-11-12T16:52:15.580Z,269.17
2022-11-12T16:57:22.935Z,269.14
2022-11-12T17:02:30.144Z,269.34
2022-11-12T17:07:37.410Z,269.65
2022-11-12T17:12:44.763Z,269.45
2022-11-12T17:17:51.965Z,269.20
2022-11-12T17:22:59.433Z,269.52
2022-11-12T17:28:07.178Z,270.16
2022-11-12T17:33:14.497Z,270.51
2022-11-12T17:38:21.775Z,270.70
2022-11-12T17:43:29.524Z,271.22
2022-11-12T17:48:36.307Z,271.10
2022-11-12T17:53:44.505Z,271.76
2022-11-12T17:58:52.102Z,272.85
2022-11-12T18:03:59.536Z,273.10
2022-11-12T18:09:08.173Z,273.22
2022-11-12T18:14:15.570Z,273.48
2022-11-12T18:19:22.733Z,272.99
2022-11-12T18:24:30.195Z,273.75
2022-11-12T18:29:37.923Z,274.06
2022-11-12T18:34:45.392Z,274.63
2022-11-12T18:39:53.346Z,274.76
2022-11-12T18:45:00.872Z,275.62
2022-11-12T18:50:09.046Z,276.90
2022-11-12T18:55:15.341Z,276.93
2022-11-12T19:00:22.718Z,277.60
2022-11-12T19:05:30.185Z,277.76
2022-11-12T19:10:37.594Z,278.03
2022-11-12T19:15:44.972Z,278.56
2022-11-12T19:20:52.135Z,277.88
2022-11-12T19:25:59.621Z,278.05
2022-11-12T19:31:07.289Z,278.31
2022-11-12T19:36:14.551Z,278.43
2022-11-12T19:41:21.802Z,278.41
2022-11-12T19:46:29.268Z,278.12
2022-11-12T19:51:36.379Z,278.18
2022-11-12T19:56:43.687Z,277.99
2022-11-12T20:01:51.346Z,278.77
2022-11-12T20:06:58.948Z,279.10
2022-11-12T20:12:06.219Z,279.41
2022-11-12T20:17:13.530Z,279.28
2022-11-12T20:22:20.923Z,279.85
2022-11-12T20:27:28.267Z,280.35
2022-11-12T20:32:35.812Z,280.92
2022-11-12T20:37:47.558Z,281.49
2022-11-12T20:42:54.892Z,282.17
2022-11-12T20:48:02.592Z,282.90
2022-11-12T20:53:09.904Z,283.26
2022-11-12T20:58:17.437Z,284.49
2022-11-12T21:03:24.825Z,285.23
2022-11-12T21:08:32.216Z,284.67
2022-11-12T21:13:39.658Z,285.20
2022-11-12T21:18:47.075Z,285.44
2022-11-12T21:23:56.753Z,285.35
2022-11-12T21:29:02.791Z,285.61
2022-11-12T21:34:10.108Z,285.77
2022-11-12T21:39:17.201Z,286.57
2022-11-12T21:44:24.395Z,286.77
2022-11-12T21:49:32.841Z,287.31
2022-11-12T21:54:39.996Z,287.32
2022-11-12T21:59:47.164Z,288.40
2022-11-12T22:04:54.530Z,289.14
2022-11-12T22:10:01.659Z,289.50
2022-11-12T22:15:08.880Z,289.77
2022-11-12T22:20:16.991Z,289.96
2022-11-12T22:25:24.035Z,290.33
2022-11-12T22:30:31.225Z,290.09
2022-11-12T22:35:38.601Z,290.65
2022-11-12T22:40:45.707Z,290.86
2022-11-12T22:45:52.913Z,290.92
2022-11-12T22:51:00.348Z,291.44
2022-11-12T22:56:07.323Z,291.53
2022-11-12T23:01:14.596Z,291.90
2022-11-12T23:06:21.886Z,292.34
2022-11-12T23:11:29.507Z,292.62
2022-11-12T23:16:37.994Z,293.45
2022-11-12T23:21:45.320Z,294.03
2022-11-12T23:26:52.404Z,294.88
2022-11-12T23:32:00.225Z,295.80
2022-11-12T23:37:07.622Z,296.17
2022-11-12T23:42:14.704Z,296.51
2022-11-12T23:47:21.942Z,297.24
2022-11-12T23:52:29.322Z,297.87
2022-11-12T23:57:36.367Z,297.86
